LEIBLEJR

Guest
Details From LEIB - Ibiza
To LEJR - Jerez
Flight Number -
Tags Generated
Created
Modified
Stats Distance 375 nm / 694 km
Max Altitude 0 ft / 0 m
Waypoints 3
Social Downloads 0
Likes 0
Share VATSIM

Download

Looking for another format? Having issues loading an existing format? Contact us
Advertisement - Login to hide

Notes

Generated

Route

LEIB JRZ12 LEJR

ID Type Via Altitude Latitude Longitude Leg Dist Tot Dist Heading (true) Name
O LEIB APT - 0 ft / 0 m 38.86694˚ 1.35887˚ - 0 nm - -
JRZ12 FIX - 0 ft / 0 m 36.86602˚ -5.78554˚ 359 nm 359 nm 253° / 248° -
O LEJR APT - 0 ft / 0 m 36.73497˚ -6.06481˚ 15 nm 374 nm 240° / 240° -

Altitude Profile

Advertisement - Login to hide

Weather


0- 5 10 15 20 25 30 35+ Temperature / ° C

Clouds and Precipitation
Forecast for 2017-12-13 00:00 UTC. Updated 29 minutes ago

Ground ~20,000 ft ~40,000 ft Winds

LEIB

Details ICAO LEIB (IBZ)
Name Ibiza
Region Spain
Timezone Europe/Madrid (UTC+1.0)
Stats Elevation 20 ft / 6 m (AMSL)
Location 38.872871° 1.373045°
Runways 1
Magnetic Variation 0.662° E

METAR

LEIB 122300Z VRB01KT CAVOK 06/02 Q1022 NOSIG

Decode

TAF

TAF LEIB 122000Z 1221/1321 33005KT 9999 FEW025 TX16/1309Z TN07/1306Z BECMG 1310/1312 24010KT TEMPO 1315/1321 24015G25KT

Decode

Departure Runways

ID Width Length Bearing (true) Bearing (mag) Surface Threshold Offset Overrun Length
06 148 ft / 45 m 9,153 ft / 2,790 m 61.85° 61.19° Asphalt 0 ft / 0 m 213 ft / 65 m
24 148 ft / 45 m 9,153 ft / 2,790 m 241.86° 241.20° Asphalt 0 ft / 0 m 197 ft / 60 m

LEJR

Details ICAO LEJR (XRY)
Name Jerez
Region Spain
Timezone Europe/Madrid (UTC+1.0)
Stats Elevation 93 ft / 28 m (AMSL)
Location 36.744622° -6.060110°
Runways 2
Magnetic Variation 1.339° W

METAR

LEJR 122330Z AUTO 02009KT 9999 NCD 06/03 Q1025

Decode

TAF

TAF LEJR 121700Z 1218/1318 02005KT CAVOK TX16/1315Z TN03/1307Z

Decode

Destination Runways

ID Width Length Bearing (true) Bearing (mag) Surface Threshold Offset Overrun Length
02 148 ft / 45 m 7,559 ft / 2,304 m 21.34° 22.68° Asphalt 0 ft / 0 m 0 ft / 0 m
03 148 ft / 45 m 7,559 ft / 2,304 m 21.34° 22.68° Asphalt 0 ft / 0 m 0 ft / 0 m
20 148 ft / 45 m 7,559 ft / 2,304 m 201.34° 202.68° Asphalt 0 ft / 0 m 0 ft / 0 m
21 148 ft / 45 m 7,559 ft / 2,304 m 201.34° 202.68° Asphalt 0 ft / 0 m 0 ft / 0 m

Approach Navaids

Runway Type Ident Frequency Range Bearing (true) Bearing (mag) Slope Elevation
20 Localiser IJR 108.90 MHz 18 nm / 33 km 201.34° 202.68° - 68 ft / 21 m (AMSL)
20 Glidescope IJR 108.90 MHz 10 nm / 19 km 201.34° 202.68° 3.00° 93 ft / 28 m (AMSL)
20 DME IJR 108.90 MHz 18 nm / 33 km - - - 93 ft / 28 m (AMSL)

Popular Alternatives